Time;durP1;ratioP1;P1;durP2;ratioP2;P2;SDS_P1;SDS_P2;PMS_P1;PMS_P2;Temp;Humidity;BMP_temperature;BMP_pressure;BME280_temperature;BME280_humidity;BME280_pressure;Samples;Min_cycle;Max_cycle;Signal;HPM_P1;HPM_P2
2022/04/16 00:02:20;;;;;;;15.23;11.70;;;;;;;14.49;48.33;100082.84;1677490;84;21352;-75
2022/04/16 00:04:47;;;;;;;15.67;11.10;;;;;;;14.43;48.48;100084.02;1694634;83;22821;-75
2022/04/16 00:07:13;;;;;;;13.30;10.47;;;;;;;14.37;48.67;100083.28;1694450;83;21321;-76
2022/04/16 00:09:42;;;;;;;15.10;10.37;;;;;;;14.33;48.71;100082.28;1693638;84;21855;-75
2022/04/16 00:12:09;;;;;;;15.73;10.47;;;;;;;14.32;48.84;100087.41;1726065;83;21384;-75
2022/04/16 00:14:38;;;;;;;14.10;9.80;;;;;;;14.31;48.97;100094.69;1725548;83;21393;-75
2022/04/16 00:17:06;;;;;;;15.33;9.93;;;;;;;14.27;49.52;100107.08;1716484;83;21322;-74
2022/04/16 00:19:34;;;;;;;13.23;10.23;;;;;;;14.20;50.40;100105.31;1694022;84;21624;-75
2022/04/16 00:22:01;;;;;;;13.50;10.60;;;;;;;14.17;50.86;100120.67;1696989;84;21350;-75
2022/04/16 00:24:29;;;;;;;16.20;11.00;;;;;;;14.15;51.29;100122.86;1693650;84;21325;-75
2022/04/16 00:26:56;;;;;;;13.37;10.33;;;;;;;14.17;51.33;100119.88;1691636;83;21837;-75
2022/04/16 00:29:24;;;;;;;16.97;11.43;;;;;;;14.18;51.47;100122.28;1693721;84;21422;-75
2022/04/16 00:31:50;;;;;;;14.17;10.80;;;;;;;14.20;51.48;100116.06;1694244;83;21167;-74
2022/04/16 00:34:19;;;;;;;13.20;10.83;;;;;;;14.21;51.81;100116.30;1694279;83;21409;-75
2022/04/16 00:36:48;;;;;;;15.23;11.17;;;;;;;14.21;51.92;100118.98;1694331;84;21312;-74
2022/04/16 00:39:15;;;;;;;16.47;11.73;;;;;;;14.22;52.18;100117.92;1697132;84;22415;-76
2022/04/16 00:41:43;;;;;;;14.27;11.40;;;;;;;14.24;52.14;100102.84;1563172;83;10000264;-75
2022/04/16 00:44:10;;;;;;;14.17;10.57;;;;;;;14.25;52.25;100099.88;1690325;83;20998;-76
2022/04/16 00:46:36;;;;;;;14.20;11.27;;;;;;;14.27;52.50;100101.70;1698862;82;21277;-76
2022/04/16 00:49:03;;;;;;;17.10;11.10;;;;;;;14.26;52.67;100105.49;1694592;82;21818;-76
2022/04/16 00:51:32;;;;;;;12.73;9.43;;;;;;;14.23;52.97;100110.11;1699955;83;21373;-75
2022/04/16 00:53:58;;;;;;;14.27;10.67;;;;;;;14.22;53.04;100115.78;1696150;83;21375;-76
2022/04/16 00:56:25;;;;;;;13.70;10.60;;;;;;;14.22;53.12;100129.22;1695422;82;21918;-76
2022/04/16 00:58:52;;;;;;;12.80;10.50;;;;;;;14.19;53.12;100125.22;1688059;83;21132;-76
2022/04/16 01:01:20;;;;;;;13.60;10.53;;;;;;;14.18;53.24;100115.57;1692589;82;21400;-75
2022/04/16 01:03:48;;;;;;;13.83;10.20;;;;;;;14.18;53.49;100118.78;1710055;83;21294;-76
2022/04/16 01:06:17;;;;;;;15.93;10.27;;;;;;;14.17;53.44;100119.88;1690009;83;21234;-75
2022/04/16 01:08:45;;;;;;;17.07;10.63;;;;;;;14.15;53.45;100119.36;1685790;84;21202;-74
2022/04/16 01:11:15;;;;;;;14.17;10.70;;;;;;;14.12;53.70;100118.08;1695732;83;21736;-76
2022/04/16 01:13:48;;;;;;;15.00;10.90;;;;;;;14.09;53.77;100118.66;1689230;84;21396;-75
2022/04/16 01:16:16;;;;;;;13.40;10.53;;;;;;;14.06;53.94;100109.83;1691725;83;21553;-75
2022/04/16 01:18:48;;;;;;;14.70;10.50;;;;;;;14.03;54.07;100109.86;1699448;83;21319;-74
2022/04/16 01:21:17;;;;;;;12.23;10.03;;;;;;;14.00;54.46;100113.67;1706413;82;21258;-74
2022/04/16 01:23:43;;;;;;;13.23;10.20;;;;;;;13.95;54.59;100119.92;1696743;82;21360;-75
2022/04/16 01:26:13;;;;;;;15.17;10.80;;;;;;;13.91;54.63;100104.67;1718786;82;21293;-76
2022/04/16 01:28:43;;;;;;;12.63;9.87;;;;;;;13.90;54.63;100111.14;1700561;82;21330;-75
2022/04/16 01:31:10;;;;;;;12.87;10.30;;;;;;;13.90;54.65;100099.05;1713596;82;21268;-75
2022/04/16 01:33:37;;;;;;;11.87;9.43;;;;;;;13.90;54.75;100086.42;1705214;82;21394;-75
2022/04/16 01:36:05;;;;;;;13.17;9.83;;;;;;;13.90;54.87;100081.61;1730923;82;21276;-76
2022/04/16 01:38:33;;;;;;;15.00;10.43;;;;;;;13.88;54.93;100064.42;1664953;84;21348;-76
2022/04/16 01:41:00;;;;;;;13.73;10.50;;;;;;;13.89;54.94;100072.76;1665901;84;21135;-75
2022/04/16 01:43:29;;;;;;;13.07;10.70;;;;;;;13.88;55.12;100081.09;1711633;83;21238;-75
2022/04/16 01:45:56;;;;;;;14.43;10.20;;;;;;;13.86;55.27;100109.58;1704669;82;21114;-76
2022/04/16 01:48:27;;;;;;;14.13;9.57;;;;;;;13.83;55.44;100124.37;1707912;81;21819;-76
2022/04/16 01:50:51;;;;;;;12.30;9.80;;;;;;;13.77;55.79;100128.20;1678494;84;21562;-74
2022/04/16 01:53:22;;;;;;;11.23;9.30;;;;;;;13.71;55.92;100119.16;1693464;82;21362;-75
2022/04/16 01:55:49;;;;;;;13.40;9.73;;;;;;;13.65;56.21;100122.99;1683600;82;21374;-75
2022/04/16 01:58:16;;;;;;;13.70;9.70;;;;;;;13.57;56.45;100123.89;1696737;83;21681;-75
2022/04/16 02:00:44;;;;;;;13.90;10.33;;;;;;;13.52;56.77;100120.47;1694606;83;21288;-74
2022/04/16 02:03:12;;;;;;;14.27;9.93;;;;;;;13.49;57.05;100118.35;1697555;84;21560;-76
2022/04/16 02:05:39;;;;;;;14.47;10.33;;;;;;;13.43;57.43;100129.70;1681866;83;21450;-76
2022/04/16 02:08:07;;;;;;;13.83;10.37;;;;;;;13.37;57.64;100131.64;1685792;84;22035;-74
2022/04/16 02:10:36;;;;;;;12.93;9.90;;;;;;;13.35;57.72;100129.77;1701962;83;21925;-75
2022/04/16 02:13:03;;;;;;;13.27;9.90;;;;;;;13.32;57.96;100141.63;1705586;83;21310;-73
2022/04/16 02:15:31;;;;;;;14.90;9.93;;;;;;;13.29;58.00;100151.58;1694034;82;21948;-75
2022/04/16 02:17:58;;;;;;;12.97;9.63;;;;;;;13.27;58.08;100147.84;1650471;86;22275;-74
2022/04/16 02:20:25;;;;;;;13.97;10.93;;;;;;;13.25;58.14;100151.34;1669089;85;21296;-75
2022/04/16 02:22:53;;;;;;;12.63;10.10;;;;;;;13.21;58.38;100156.20;1675058;83;21191;-75
2022/04/16 02:25:24;;;;;;;13.22;10.35;;;;;;;13.18;58.50;100148.72;1707735;83;21515;-75
2022/04/16 02:27:49;;;;;;;13.83;10.30;;;;;;;13.15;58.57;100150.08;1722086;83;21730;-75
2022/04/16 02:30:16;;;;;;;12.67;10.30;;;;;;;13.15;58.66;100151.42;1725567;83;21284;-75
2022/04/16 02:32:46;;;;;;;11.63;9.93;;;;;;;13.15;58.64;100148.74;1701908;83;21308;-75
2022/04/16 02:35:14;;;;;;;11.93;9.83;;;;;;;13.15;58.81;100146.86;1670597;85;21606;-74
2022/04/16 02:37:41;;;;;;;13.78;10.48;;;;;;;13.15;58.72;100144.17;1669192;85;21851;-74
2022/04/16 02:40:09;;;;;;;16.13;10.33;;;;;;;13.17;58.66;100144.45;1678281;84;21182;-75
2022/04/16 02:42:36;;;;;;;13.20;9.25;;;;;;;13.17;58.72;100145.25;1677967;82;21624;-74
2022/04/16 02:47:53;;;;;;;16.10;11.57;;;;;;;13.12;58.99;100143.95;1684585;82;21043;-75
2022/04/16 02:50:25;;;;;;;14.55;10.72;;;;;;;13.07;59.30;100142.67;1694251;83;21602;-75
2022/04/16 02:52:53;;;;;;;13.98;10.95;;;;;;;13.05;59.35;100132.22;1671334;85;21125;-75
2022/04/16 02:55:20;;;;;;;14.28;11.12;;;;;;;13.06;59.39;100137.03;1708232;83;20963;-75
2022/04/16 02:57:47;;;;;;;16.55;11.55;;;;;;;13.06;59.45;100135.17;1702986;82;21064;-74
2022/04/16 03:00:14;;;;;;;17.30;11.97;;;;;;;13.04;59.60;100130.62;1696481;82;21615;-75
2022/04/16 03:02:42;;;;;;;15.88;11.20;;;;;;;13.02;59.70;100133.33;1692384;82;21040;-76
2022/04/16 03:05:11;;;;;;;16.85;11.73;;;;;;;13.02;59.97;100145.39;1689108;83;21873;-76
2022/04/16 03:07:38;;;;;;;14.33;10.80;;;;;;;12.97;60.28;100160.99;1683046;83;21075;-76
2022/04/16 03:10:12;;;;;;;13.83;11.55;;;;;;;12.93;60.58;100148.42;1682241;83;21612;-76
2022/04/16 03:12:51;;;;;;;14.40;11.83;;;;;;;12.89;60.59;100155.68;1687603;83;21009;-76
2022/04/16 03:17:56;;;;;;;14.95;11.22;;;;;;;12.88;60.78;100151.41;1657823;84;20988;-74
2022/04/16 03:20:25;;;;;;;18.25;12.33;;;;;;;12.87;60.86;100159.20;1698154;83;21012;-74
2022/04/16 03:22:52;;;;;;;18.67;11.43;;;;;;;12.87;60.88;100144.46;1718872;82;21494;-74
2022/04/16 03:25:21;;;;;;;14.63;12.13;;;;;;;12.90;60.91;100150.59;1696959;83;21600;-74
2022/04/16 03:27:47;;;;;;;15.40;12.33;;;;;;;12.93;60.89;100164.50;1692961;83;21138;-74
2022/04/16 03:30:14;;;;;;;15.03;12.50;;;;;;;12.96;60.93;100162.05;1658077;84;21789;-75
2022/04/16 03:32:42;;;;;;;16.60;12.63;;;;;;;12.98;60.91;100178.67;1685659;82;21181;-75
2022/04/16 03:35:10;;;;;;;15.83;12.58;;;;;;;12.99;61.05;100182.14;1659546;84;21035;-74
2022/04/16 03:37:38;;;;;;;16.00;12.28;;;;;;;12.99;61.03;100174.10;1684108;83;21079;-74
2022/04/16 03:40:06;;;;;;;16.23;12.55;;;;;;;13.00;61.08;100168.47;1719388;83;21509;-74
2022/04/16 03:42:33;;;;;;;17.45;13.25;;;;;;;13.02;61.05;100166.30;1727238;82;21275;-74
2022/04/16 03:45:00;;;;;;;17.40;13.28;;;;;;;13.05;61.05;100170.30;1688816;83;21016;-75
2022/04/16 03:47:28;;;;;;;16.90;13.75;;;;;;;13.08;61.07;100170.53;1685929;83;20975;-75
2022/04/16 03:49:56;;;;;;;15.55;13.00;;;;;;;13.10;61.04;100172.94;1694345;83;21053;-75
2022/04/16 03:52:22;;;;;;;17.73;13.08;;;;;;;13.10;61.08;100175.08;1658440;84;21110;-75
2022/04/16 04:00:20;;;;;;;18.57;14.35;;;;;;;13.06;61.42;100170.55;1698358;82;21059;-76
2022/04/16 04:02:47;;;;;;;17.75;14.00;;;;;;;13.04;61.65;100164.69;1707217;81;20951;-75
2022/04/16 04:05:14;;;;;;;18.10;14.38;;;;;;;13.02;61.84;100170.31;1701576;82;20968;-75
2022/04/16 04:07:41;;;;;;;18.45;14.45;;;;;;;13.03;61.95;100177.30;1684289;83;21183;-75
2022/04/16 04:10:10;;;;;;;16.73;14.68;;;;;;;13.03;62.01;100181.83;1693266;82;21066;-75
2022/04/16 04:12:37;;;;;;;17.62;14.05;;;;;;;13.02;62.13;100178.90;1695161;83;21133;-75
2022/04/16 04:15:05;;;;;;;17.62;14.98;;;;;;;13.02;62.19;100193.10;1695724;83;20983;-76
2022/04/16 04:17:33;;;;;;;17.37;14.53;;;;;;;13.02;62.09;100188.28;1699967;84;20980;-75
2022/04/16 04:20:00;;;;;;;18.12;14.63;;;;;;;13.04;62.05;100188.81;1701577;83;21141;-75
2022/04/16 04:22:28;;;;;;;18.25;14.47;;;;;;;13.06;62.02;100185.29;1693137;83;20936;-74
2022/04/16 04:24:56;;;;;;;16.87;14.20;;;;;;;13.08;61.94;100191.98;1686297;84;21811;-75
2022/04/16 04:27:23;;;;;;;16.07;14.28;;;;;;;13.08;61.91;100183.14;1677804;83;21004;-75
2022/04/16 04:29:50;;;;;;;17.37;14.50;;;;;;;13.13;61.91;100188.47;1687816;83;21071;-75
2022/04/16 04:32:16;;;;;;;17.12;13.65;;;;;;;13.16;61.75;100183.85;1686615;82;21400;-76
2022/04/16 04:34:45;;;;;;;18.27;15.30;;;;;;;13.18;61.66;100187.06;1692463;82;20952;-75
2022/04/16 04:37:11;;;;;;;19.32;15.40;;;;;;;13.21;61.56;100183.81;1711518;82;21024;-75
2022/04/16 04:39:38;;;;;;;18.30;15.60;;;;;;;13.24;61.48;100192.67;1690287;82;21115;-74
2022/04/16 04:42:04;;;;;;;17.42;14.28;;;;;;;13.26;61.39;100186.49;1699185;83;21047;-74
2022/04/16 04:44:31;;;;;;;16.55;14.85;;;;;;;13.30;61.30;100184.04;1714095;83;21114;-75
2022/04/16 04:46:59;;;;;;;18.07;15.48;;;;;;;13.30;61.21;100180.81;1698326;82;21057;-78
2022/04/16 04:49:25;;;;;;;18.20;15.07;;;;;;;13.27;61.25;100185.40;1690779;83;21679;-76
2022/04/16 04:51:52;;;;;;;16.97;15.13;;;;;;;13.27;61.24;100178.70;1697184;82;21298;-76
2022/04/16 04:54:19;;;;;;;19.57;15.90;;;;;;;13.31;61.14;100185.63;1686024;83;21235;-76
2022/04/16 04:56:47;;;;;;;19.23;15.50;;;;;;;13.32;61.05;100189.35;1695726;82;21178;-75
2022/04/16 04:59:14;;;;;;;19.57;16.82;;;;;;;13.31;60.99;100185.63;1696912;83;21643;-75
2022/04/16 05:01:41;;;;;;;18.97;15.97;;;;;;;13.27;60.92;100185.40;1698227;83;20967;-75
2022/04/16 05:04:07;;;;;;;17.47;15.40;;;;;;;13.25;60.95;100183.53;1689950;82;21556;-75
2022/04/16 05:06:35;;;;;;;20.60;15.40;;;;;;;13.24;60.98;100179.26;1681517;83;21738;-75
2022/04/16 05:09:04;;;;;;;21.87;15.93;;;;;;;13.22;61.01;100184.06;1691815;82;21019;-75
2022/04/16 05:11:30;;;;;;;18.83;16.13;;;;;;;13.22;60.99;100177.36;1693829;82;21051;-75
2022/04/16 05:13:58;;;;;;;17.05;14.85;;;;;;;13.25;60.97;100187.55;1691605;83;21516;-74
2022/04/16 05:16:25;;;;;;;18.23;15.72;;;;;;;13.30;60.89;100179.47;1668015;84;21003;-76
2022/04/16 05:18:52;;;;;;;17.43;15.37;;;;;;;13.32;60.81;100175.95;1664733;84;20996;-74
2022/04/16 05:21:20;;;;;;;19.67;16.33;;;;;;;13.34;60.68;100172.99;1688240;82;21436;-76
2022/04/16 05:23:46;;;;;;;18.17;15.33;;;;;;;13.34;60.65;100172.45;1689562;82;21453;-75
2022/04/16 05:26:15;;;;;;;19.07;15.57;;;;;;;13.35;60.60;100174.58;1688562;82;22044;-77
2022/04/16 05:28:42;;;;;;;16.73;14.93;;;;;;;13.37;60.49;100175.91;1691688;82;21416;-75
2022/04/16 05:31:09;;;;;;;17.50;15.37;;;;;;;13.42;60.48;100174.24;1692042;82;21002;-75
2022/04/16 05:36:22;;;;;;;17.33;14.93;;;;;;;13.54;60.22;100181.36;1691358;82;21184;-75
2022/04/16 05:38:48;;;;;;;21.73;16.50;;;;;;;13.60;60.00;100181.56;1694600;82;21296;-75
2022/04/16 05:41:15;;;;;;;18.23;15.70;;;;;;;13.64;59.84;100183.92;1691189;82;21290;-75
2022/04/16 05:43:42;;;;;;;18.73;15.87;;;;;;;13.64;59.68;100186.61;1689191;82;21234;-75
2022/04/16 05:46:10;;;;;;;17.33;15.53;;;;;;;13.63;59.56;100193.07;1689927;82;21338;-76
2022/04/16 05:48:37;;;;;;;16.73;14.87;;;;;;;13.59;59.45;100187.48;1697834;82;21453;-75
2022/04/16 05:51:04;;;;;;;18.80;15.87;;;;;;;13.56;59.50;100184.56;1688253;82;21030;-75
2022/04/16 05:53:31;;;;;;;15.83;14.07;;;;;;;13.55;59.55;100183.75;1713315;82;21274;-74
2022/04/16 05:56:00;;;;;;;17.77;15.72;;;;;;;13.56;59.57;100187.25;1687818;82;21288;-75
2022/04/16 05:58:27;;;;;;;17.60;15.13;;;;;;;13.62;59.57;100186.08;1720805;82;21508;-74
2022/04/16 06:00:55;;;;;;;17.97;14.93;;;;;;;13.69;59.42;100190.59;1687936;82;21249;-75
2022/04/16 06:03:22;;;;;;;15.93;13.80;;;;;;;13.80;59.34;100184.55;1655967;84;21312;-75
2022/04/16 06:05:54;;;;;;;16.73;14.90;;;;;;;13.96;59.19;100187.30;1689286;83;21583;-75
2022/04/16 06:08:21;;;;;;;19.77;14.40;;;;;;;14.14;58.85;100188.94;1661606;84;21363;-75
2022/04/16 06:10:49;;;;;;;17.10;14.03;;;;;;;14.29;58.00;100190.88;1654764;84;21149;-75
2022/04/16 06:13:16;;;;;;;16.43;14.60;;;;;;;14.34;57.69;100188.66;1693680;82;21202;-75
2022/04/16 06:15:44;;;;;;;21.37;14.77;;;;;;;14.42;57.51;100184.53;1692578;82;21265;-76
2022/04/16 06:18:12;;;;;;;18.20;16.20;;;;;;;14.49;57.20;100176.89;1671351;84;21749;-78
2022/04/16 06:20:40;;;;;;;16.97;14.63;;;;;;;14.54;56.78;100172.80;1671148;85;21255;-76
2022/04/16 06:23:07;;;;;;;18.73;15.60;;;;;;;14.61;56.63;100176.45;1668093;84;21264;-77
2022/04/16 06:25:35;;;;;;;18.37;15.77;;;;;;;14.64;56.46;100174.01;1691723;82;21329;-76
2022/04/16 06:28:02;;;;;;;19.03;15.90;;;;;;;14.70;56.31;100178.19;1665035;84;21905;-76
2022/04/16 06:30:31;;;;;;;19.47;15.87;;;;;;;14.75;56.10;100175.44;1695515;82;21155;-75
2022/04/16 06:32:57;;;;;;;17.80;15.20;;;;;;;14.85;55.76;100180.39;1702527;82;21278;-76
2022/04/16 06:35:24;;;;;;;15.43;13.80;;;;;;;14.94;55.61;100167.33;1686439;83;21330;-76
2022/04/16 06:37:51;;;;;;;19.73;16.87;;;;;;;15.04;55.32;100173.08;1693022;82;21228;-77
2022/04/16 06:40:18;;;;;;;20.00;16.20;;;;;;;15.12;55.11;100169.69;1671606;84;21355;-76
2022/04/16 06:42:45;;;;;;;17.57;15.67;;;;;;;15.25;54.98;100172.16;1699099;82;21127;-76
2022/04/16 06:45:13;;;;;;;18.93;16.53;;;;;;;15.37;54.54;100166.30;1705336;83;21706;-76
2022/04/16 06:47:41;;;;;;;20.10;16.80;;;;;;;15.49;54.30;100171.96;1712211;82;21434;-77
2022/04/16 06:50:09;;;;;;;19.20;15.20;;;;;;;15.57;54.05;100169.94;1702304;83;21326;-75
2022/04/16 06:52:36;;;;;;;20.20;17.13;;;;;;;15.74;53.75;100171.25;1700032;83;21345;-76
2022/04/16 06:55:05;;;;;;;17.33;15.37;;;;;;;15.88;53.26;100177.41;1716243;83;21304;-74
2022/04/16 06:57:32;;;;;;;17.30;15.50;;;;;;;16.06;53.09;100179.74;1707489;82;21254;-75
2022/04/16 06:59:58;;;;;;;16.97;14.47;;;;;;;16.29;52.60;100173.30;1669263;83;21493;-76
2022/04/16 07:02:25;;;;;;;16.30;14.30;;;;;;;16.52;52.04;100174.11;1698727;83;21499;-78
2022/04/16 07:04:54;;;;;;;20.03;16.07;;;;;;;16.59;50.90;100173.13;1706721;82;21474;-77
2022/04/16 07:07:21;;;;;;;17.70;15.80;;;;;;;16.53;50.94;100174.34;1696049;83;21390;-78
2022/04/16 07:09:47;;;;;;;16.43;14.37;;;;;;;16.52;50.83;100175.98;1702102;82;21426;-78
2022/04/16 07:12:16;;;;;;;16.77;13.20;;;;;;;16.59;50.91;100173.69;1716003;82;21474;-78
2022/04/16 07:14:43;;;;;;;17.10;14.83;;;;;;;16.67;50.54;100175.63;1723151;79;21615;-77
2022/04/16 07:17:10;;;;;;;18.20;15.87;;;;;;;16.67;50.54;100175.63;1699084;81;21720;-78
2022/04/16 07:19:38;;;;;;;18.00;15.37;;;;;;;16.73;49.75;100174.97;1710137;81;21461;-75
2022/04/16 07:22:05;;;;;;;16.60;14.60;;;;;;;16.70;50.15;100178.27;1701533;83;21490;-77
2022/04/16 07:24:32;;;;;;;16.67;14.60;;;;;;;16.68;50.29;100181.26;1671823;84;21742;-76
2022/04/16 07:26:58;;;;;;;17.60;15.70;;;;;;;16.67;50.42;100182.38;1673856;83;21694;-75
2022/04/16 07:29:26;;;;;;;17.73;15.77;;;;;;;16.71;50.18;100182.55;1674653;83;21706;-77
2022/04/16 07:31:53;;;;;;;18.60;16.63;;;;;;;16.74;49.88;100188.69;1675771;83;21802;-77
2022/04/16 07:34:20;;;;;;;19.53;17.43;;;;;;;16.59;50.04;100185.27;1703248;81;21766;-76
2022/04/16 07:36:47;;;;;;;16.93;13.73;;;;;;;16.44;50.40;100199.64;1700178;82;21706;-75
2022/04/16 07:39:15;;;;;;;18.03;16.13;;;;;;;16.36;50.65;100196.58;1682616;83;21624;-78
2022/04/16 07:41:43;;;;;;;18.20;16.03;;;;;;;16.34;50.69;100192.58;1705800;84;22229;-77
2022/04/16 07:44:10;;;;;;;17.00;15.30;;;;;;;16.32;50.58;100209.59;1697366;83;21823;-77
2022/04/16 07:46:37;;;;;;;18.70;16.80;;;;;;;16.23;50.91;100195.27;1687804;83;21685;-78
2022/04/16 07:49:07;;;;;;;19.87;17.13;;;;;;;16.22;50.94;100196.34;1684854;83;21758;-76
2022/04/16 07:51:34;;;;;;;18.23;16.33;;;;;;;16.17;51.08;100191.33;1687247;82;21658;-75
2022/04/16 07:54:01;;;;;;;18.03;16.13;;;;;;;16.17;51.09;100191.33;1695442;82;22667;-76
2022/04/16 07:56:28;;;;;;;17.17;15.33;;;;;;;16.22;51.12;100193.66;1690845;83;21685;-76
2022/04/16 07:58:56;;;;;;;16.77;14.73;;;;;;;16.35;51.05;100196.86;1690225;83;21659;-76
2022/04/16 08:01:24;;;;;;;19.23;16.27;;;;;;;16.35;51.05;100196.86;1673013;84;21717;-75
2022/04/16 08:03:50;;;;;;;18.43;16.07;;;;;;;16.36;50.77;100203.87;1674366;83;21764;-77
2022/04/16 08:06:18;;;;;;;18.30;16.40;;;;;;;16.34;50.69;100206.06;1657928;85;21725;-77
2022/04/16 08:08:45;;;;;;;18.80;15.53;;;;;;;16.31;50.70;100202.63;1664023;84;21668;-77
2022/04/16 08:11:13;;;;;;;18.77;16.53;;;;;;;16.26;50.77;100207.58;1671303;84;21719;-77
2022/04/16 08:13:40;;;;;;;20.20;16.93;;;;;;;16.19;50.95;100207.20;1668459;84;21761;-77
2022/04/16 08:16:08;;;;;;;19.40;16.73;;;;;;;16.11;51.05;100200.62;1664305;84;21491;-76
2022/04/16 08:18:35;;;;;;;17.97;16.07;;;;;;;16.15;51.32;100211.58;1672013;86;21731;-76
2022/04/16 08:21:02;;;;;;;18.60;15.97;;;;;;;16.23;51.49;100211.44;1668168;85;21774;-76
2022/04/16 08:23:29;;;;;;;19.57;16.23;;;;;;;16.23;51.49;100211.44;1683161;83;21773;-76
2022/04/16 08:25:56;;;;;;;19.40;17.30;;;;;;;16.33;51.42;100216.60;1689087;83;21762;-75
2022/04/16 08:28:24;;;;;;;19.50;17.10;;;;;;;16.35;51.06;100217.90;1689669;83;22783;-76
2022/04/16 08:30:51;;;;;;;17.53;15.73;;;;;;;16.36;51.25;100214.65;1671945;85;21492;-77
2022/04/16 08:33:18;;;;;;;19.17;17.17;;;;;;;16.40;51.36;100212.38;1671790;85;21722;-76
2022/04/16 08:35:46;;;;;;;17.43;15.63;;;;;;;16.50;50.98;100210.56;1677163;83;21683;-78
2022/04/16 08:38:14;;;;;;;19.37;16.23;;;;;;;16.55;50.98;100207.20;1693390;83;21648;-76
2022/04/16 08:40:41;;;;;;;18.80;16.80;;;;;;;16.62;50.54;100213.52;1689636;83;21763;-77
2022/04/16 08:43:08;;;;;;;19.87;16.53;;;;;;;16.64;50.34;100205.34;1689686;83;21684;-76
2022/04/16 08:45:37;;;;;;;20.23;16.33;;;;;;;16.69;50.25;100207.14;1698111;83;37976;-75
2022/04/16 08:48:06;;;;;;;17.83;15.03;;;;;;;16.76;50.16;100202.14;1689878;83;21800;-76
2022/04/16 08:50:34;;;;;;;18.47;15.60;;;;;;;16.79;49.75;100200.74;1680514;83;21680;-76
2022/04/16 08:53:02;;;;;;;16.93;14.67;;;;;;;16.70;49.39;100202.55;1621871;84;21762;-76
2022/04/16 08:55:29;;;;;;;15.33;13.40;;;;;;;16.62;48.94;100206.78;1687994;83;21691;-75
2022/04/16 08:57:58;;;;;;;18.13;14.03;;;;;;;16.49;49.07;100202.23;1668897;84;21874;-76
2022/04/16 09:00:25;;;;;;;15.60;12.43;;;;;;;16.35;49.36;100217.90;1664961;84;21816;-76
2022/04/16 09:02:56;;;;;;;14.77;13.17;;;;;;;16.29;49.25;100210.23;1666471;84;21764;-77
2022/04/16 09:05:27;;;;;;;17.60;12.98;;;;;;;16.25;49.46;100209.22;1664608;84;21855;-76
2022/04/16 09:07:57;;;;;;;16.07;12.77;;;;;;;16.26;49.64;100217.02;1691158;83;21088;-78
2022/04/16 09:10:29;;;;;;;17.83;13.20;;;;;;;16.34;49.50;100223.58;1694284;83;21692;-77
2022/04/16 09:13:01;;;;;;;19.10;13.70;;;;;;;16.35;49.37;100215.20;1686366;83;22238;-78
2022/04/16 09:15:31;;;;;;;16.67;13.73;;;;;;;16.38;49.35;100224.00;1688331;83;21840;-78
2022/04/16 09:18:05;;;;;;;15.90;13.80;;;;;;;16.43;49.37;100221.77;1681055;84;21753;-76
2022/04/16 09:20:39;;;;;;;16.13;14.23;;;;;;;16.46;49.23;100209.58;1652782;83;21726;-78
2022/04/16 09:23:21;;;;;;;15.07;12.73;;;;;;;16.46;49.23;100209.58;1692641;83;21679;-79
2022/04/16 09:25:51;;;;;;;15.60;12.47;;;;;;;16.56;49.33;100213.39;1696489;84;21812;-78
2022/04/16 09:28:19;;;;;;;16.80;13.63;;;;;;;16.74;48.87;100211.61;1684405;84;21627;-79
2022/04/16 09:30:56;;;;;;;16.83;14.70;;;;;;;16.74;48.87;100211.61;1671028;85;21686;-79
2022/04/16 09:33:23;;;;;;;18.77;16.03;;;;;;;16.79;48.65;100211.53;1673267;83;21831;-77
2022/04/16 09:35:55;;;;;;;15.33;13.73;;;;;;;16.81;48.57;100221.44;1686774;83;21797;-77
2022/04/16 09:38:24;;;;;;;;;;;;;;;16.81;48.32;100226.84;1688027;83;21846;-77
2022/04/16 09:40:52;;;;;;;12.93;11.53;;;;;;;16.76;48.00;100228.32;1643922;84;21153;-78
2022/04/16 09:43:18;;;;;;;15.30;12.27;;;;;;;16.72;48.03;100225.41;1671052;86;21756;-78
2022/04/16 09:45:45;;;;;;;13.03;11.73;;;;;;;16.73;48.15;100218.91;1679066;83;21737;-77
2022/04/16 09:48:13;;;;;;;13.17;11.60;;;;;;;16.74;47.69;100215.09;1687470;83;21745;-78
2022/04/16 09:50:42;;;;;;;13.30;11.17;;;;;;;16.77;47.53;100217.77;1684482;83;21777;-77
2022/04/16 09:53:11;;;;;;;12.33;11.03;;;;;;;16.77;47.41;100229.35;1687276;83;21805;-77
2022/04/16 09:55:39;;;;;;;14.37;11.23;;;;;;;16.74;47.09;100234.53;1685242;83;21766;-77
2022/04/16 09:58:07;;;;;;;9.27;7.30;;;;;;;16.68;47.12;100254.63;1680369;84;21761;-77
2022/04/16 10:00:37;;;;;;;9.50;6.73;;;;;;;16.48;49.01;100267.46;1651534;86;22253;-79
2022/04/16 10:03:07;;;;;;;8.37;6.10;;;;;;;15.55;51.94;100265.53;1670259;83;21804;-78
2022/04/16 10:05:35;;;;;;;;;;;;;;;15.55;51.94;100265.53;1673593;86;21802;-77
2022/04/16 10:08:04;;;;;;;9.07;6.80;;;;;;;15.18;53.37;100290.91;1678375;84;20189;-76
2022/04/16 10:10:36;;;;;;;6.97;6.07;;;;;;;14.75;54.19;100280.83;1685754;84;21485;-77
2022/04/16 10:13:04;;;;;;;7.53;5.87;;;;;;;14.36;55.14;100292.61;1700946;84;21417;-77
2022/04/16 10:15:47;;;;;;;7.67;5.43;;;;;;;14.07;56.30;100292.69;1701153;84;21265;-75
2022/04/16 10:18:14;;;;;;;8.58;6.33;;;;;;;13.80;57.00;100322.25;1699897;84;21906;-78
2022/04/16 10:21:00;;;;;;;7.03;5.40;;;;;;;13.60;57.86;100324.59;1663150;84;21618;-74
2022/04/16 10:23:39;;;;;;;9.13;5.80;;;;;;;13.45;58.39;100322.58;1664349;84;21248;-77
2022/04/16 10:26:12;;;;;;;7.50;4.60;;;;;;;13.31;58.77;100308.47;1658982;84;21980;-76
2022/04/16 10:28:54;;;;;;;7.10;5.17;;;;;;;13.19;59.21;100332.13;1691172;83;21849;-77
2022/04/16 10:31:27;;;;;;;7.90;4.97;;;;;;;13.07;59.28;100350.47;1686227;83;21238;-73
2022/04/16 10:34:11;;;;;;;9.50;6.73;;;;;;;12.82;59.32;100344.17;1679549;83;21386;-75
2022/04/16 10:36:54;;;;;;;11.30;7.83;;;;;;;12.59;59.61;100335.45;1683122;83;21762;-75
2022/04/16 10:39:29;;;;;;;9.67;6.40;;;;;;;12.34;60.19;100349.23;1684043;83;22150;-77
2022/04/16 10:42:01;;;;;;;8.47;6.10;;;;;;;12.13;60.43;100364.54;1664712;84;21386;-78
2022/04/16 10:44:32;;;;;;;8.43;6.22;;;;;;;11.99;60.60;100377.44;1701130;82;21327;-78
2022/04/16 10:47:00;;;;;;;8.55;5.45;;;;;;;11.86;60.73;100385.48;1700206;82;21072;-77
2022/04/16 10:49:27;;;;;;;9.30;6.00;;;;;;;11.75;60.65;100379.31;1687200;84;21068;-76
2022/04/16 10:51:55;;;;;;;9.35;5.87;;;;;;;11.69;60.62;100383.05;1702943;84;21020;-78
2022/04/16 10:54:34;;;;;;;8.48;5.67;;;;;;;11.59;60.44;100379.05;1703972;84;20997;-78
2022/04/16 10:57:02;;;;;;;10.68;6.42;;;;;;;11.50;60.32;100387.59;1675901;85;21116;-77
2022/04/16 10:59:44;;;;;;;6.65;3.85;;;;;;;11.43;60.57;100400.43;1675394;85;21582;-77
2022/04/16 11:02:24;;;;;;;6.08;3.45;;;;;;;11.44;60.57;100395.88;1698842;82;21032;-76
2022/04/16 11:05:09;;;;;;;5.65;2.95;;;;;;;11.48;59.78;100397.77;1703442;84;21131;-77
2022/04/16 11:07:40;;;;;;;6.53;4.20;;;;;;;11.53;58.92;100394.28;1704061;84;21069;-75
2022/04/16 11:10:09;;;;;;;4.70;3.08;;;;;;;11.60;58.19;100404.18;1703850;84;21153;-79
2022/04/16 11:12:39;;;;;;;4.67;2.55;;;;;;;11.64;58.00;100401.77;1703651;84;21046;-79
2022/04/16 11:15:09;;;;;;;6.87;4.30;;;;;;;11.67;57.72;100404.71;1703702;84;21114;-77
2022/04/16 11:17:36;;;;;;;5.67;3.17;;;;;;;11.66;57.87;100385.72;1697210;83;21079;-76
2022/04/16 11:20:07;;;;;;;3.20;1.80;;;;;;;11.70;58.15;100400.70;1653554;86;21118;-78
2022/04/16 11:22:34;;;;;;;6.72;3.33;;;;;;;11.77;58.34;100405.24;1670063;86;21569;-76
2022/04/16 11:25:04;;;;;;;5.20;3.33;;;;;;;11.78;58.41;100400.18;1669574;86;21682;-75
2022/04/16 11:36:01;;;;;;;4.12;2.40;;;;;;;11.25;60.49;100416.45;1688903;84;21236;-76
2022/04/16 11:38:30;;;;;;;5.60;3.30;;;;;;;11.19;60.57;100432.75;1699722;84;21005;-78
2022/04/16 11:40:59;;;;;;;4.40;2.30;;;;;;;11.10;60.44;100416.41;1699285;84;20990;-76